KDSV

Dansville Municipal Airport

Dansville, New York, USA
METAR KDSV 162354Z AUTO 33005KT 10SM OVC023 M05/M08 A3014 RMK AO2 SLP226 60000 T10501078 11033 21050 51035
Observed Flight Rules
Dec-16 @ 23:54 UTC (25 minutes ago) Marginal Visual Flight Rules
Wind Visibility Clouds
330° at 5 knots 10 miles
  • Overcast at 2,300' AGL
Temperatures Readings
Current -5°C / 23°F
Dewpoint -8°C / 18°F
Humidity 80%
Altimeter 30.14" Hg
Pressure 1022.6 hPa
Elevation 198
METAR KDSV 162354Z AUTO 33005KT 10SM OVC023 M05/M08 A3014 RMK AO2 SLP226 60000 T10501078 11033 21050 51035
Observed Flight Rules
Dec-16 @ 23:54 UTC
(25 minutes ago)
MVFR
Wind Visibility
330° at 5 knots 10 miles
Clouds
  • Overcast at 2,300' AGL
Temperature Dewpoint
-5°C / 23°F -8°C / 18°F
Humidity Altimeter Pressure
80% 30.14" Hg 1022.6 hPa